sensor_id;sensor_type;location;lat;lon;timestamp;pressure;altitude;pressure_sealevel;temperature;humidity
24858;BME280;12935;50.782;6.074;2024-02-26T00:01:08;97558.72;;;7.36;100.00
24858;BME280;12935;50.782;6.074;2024-02-26T00:03:33;97561.81;;;7.38;100.00
24858;BME280;12935;50.782;6.074;2024-02-26T00:06:01;97557.56;;;7.37;100.00
24858;BME280;12935;50.782;6.074;2024-02-26T00:08:27;97555.66;;;7.34;100.00
24858;BME280;12935;50.782;6.074;2024-02-26T00:10:52;97548.34;;;7.31;100.00
24858;BME280;12935;50.782;6.074;2024-02-26T00:13:18;97539.09;;;7.28;100.00
24858;BME280;12935;50.782;6.074;2024-02-26T00:15:43;97540.00;;;7.22;100.00
24858;BME280;12935;50.782;6.074;2024-02-26T00:18:08;97540.44;;;7.20;100.00
24858;BME280;12935;50.782;6.074;2024-02-26T00:20:34;97530.31;;;7.21;100.00
24858;BME280;12935;50.782;6.074;2024-02-26T00:22:59;97532.56;;;7.06;100.00
24858;BME280;12935;50.782;6.074;2024-02-26T00:25:25;97527.53;;;7.04;100.00
24858;BME280;12935;50.782;6.074;2024-02-26T00:27:50;97524.53;;;6.99;100.00
24858;BME280;12935;50.782;6.074;2024-02-26T00:30:15;97532.28;;;7.00;100.00
24858;BME280;12935;50.782;6.074;2024-02-26T00:32:40;97537.69;;;7.00;100.00
24858;BME280;12935;50.782;6.074;2024-02-26T00:35:06;97530.38;;;6.97;100.00
24858;BME280;12935;50.782;6.074;2024-02-26T00:37:31;97535.06;;;6.97;100.00
24858;BME280;12935;50.782;6.074;2024-02-26T00:39:57;97526.25;;;6.69;100.00
24858;BME280;12935;50.782;6.074;2024-02-26T00:42:22;97529.06;;;6.86;100.00
24858;BME280;12935;50.782;6.074;2024-02-26T00:44:47;97532.53;;;6.86;100.00
24858;BME280;12935;50.782;6.074;2024-02-26T00:47:12;97529.34;;;6.91;100.00
24858;BME280;12935;50.782;6.074;2024-02-26T00:49:38;97525.03;;;6.94;100.00
24858;BME280;12935;50.782;6.074;2024-02-26T00:52:03;97529.28;;;6.95;100.00
24858;BME280;12935;50.782;6.074;2024-02-26T00:54:29;97534.28;;;6.96;100.00
24858;BME280;12935;50.782;6.074;2024-02-26T00:56:55;97526.19;;;6.93;100.00
24858;BME280;12935;50.782;6.074;2024-02-26T00:59:20;97532.13;;;6.88;100.00
24858;BME280;12935;50.782;6.074;2024-02-26T01:01:46;97541.88;;;6.85;100.00
24858;BME280;12935;50.782;6.074;2024-02-26T01:04:11;97538.03;;;6.83;100.00
24858;BME280;12935;50.782;6.074;2024-02-26T01:06:37;97543.25;;;6.74;100.00
24858;BME280;12935;50.782;6.074;2024-02-26T01:09:03;97532.75;;;6.76;100.00
24858;BME280;12935;50.782;6.074;2024-02-26T01:11:28;97525.38;;;6.76;100.00
24858;BME280;12935;50.782;6.074;2024-02-26T01:13:53;97528.00;;;6.80;100.00
24858;BME280;12935;50.782;6.074;2024-02-26T01:16:22;97527.25;;;6.79;100.00
24858;BME280;12935;50.782;6.074;2024-02-26T01:18:47;97528.78;;;6.80;100.00
24858;BME280;12935;50.782;6.074;2024-02-26T01:21:13;97527.59;;;6.81;100.00
24858;BME280;12935;50.782;6.074;2024-02-26T01:23:38;97522.16;;;6.81;100.00
24858;BME280;12935;50.782;6.074;2024-02-26T01:26:03;97529.47;;;6.84;100.00
24858;BME280;12935;50.782;6.074;2024-02-26T01:28:30;97530.25;;;6.85;100.00
24858;BME280;12935;50.782;6.074;2024-02-26T01:30:55;97514.84;;;6.78;100.00
24858;BME280;12935;50.782;6.074;2024-02-26T01:33:20;97521.28;;;6.88;100.00
24858;BME280;12935;50.782;6.074;2024-02-26T01:35:45;97515.16;;;6.84;100.00
24858;BME280;12935;50.782;6.074;2024-02-26T01:38:12;97524.88;;;6.81;100.00
24858;BME280;12935;50.782;6.074;2024-02-26T01:40:37;97525.59;;;6.85;100.00
24858;BME280;12935;50.782;6.074;2024-02-26T01:43:02;97526.34;;;6.86;100.00
24858;BME280;12935;50.782;6.074;2024-02-26T01:45:27;97512.91;;;6.79;100.00
24858;BME280;12935;50.782;6.074;2024-02-26T01:47:54;97519.38;;;6.85;100.00
24858;BME280;12935;50.782;6.074;2024-02-26T01:50:20;97514.44;;;6.80;100.00
24858;BME280;12935;50.782;6.074;2024-02-26T01:52:47;97509.72;;;6.84;100.00
24858;BME280;12935;50.782;6.074;2024-02-26T01:55:14;97512.50;;;6.80;100.00
24858;BME280;12935;50.782;6.074;2024-02-26T01:57:42;97517.50;;;6.82;100.00
24858;BME280;12935;50.782;6.074;2024-02-26T02:00:07;97519.88;;;6.80;100.00
24858;BME280;12935;50.782;6.074;2024-02-26T02:02:33;97516.38;;;6.79;100.00
24858;BME280;12935;50.782;6.074;2024-02-26T02:05:00;97503.38;;;6.71;100.00
24858;BME280;12935;50.782;6.074;2024-02-26T02:07:25;97514.16;;;6.74;100.00
24858;BME280;12935;50.782;6.074;2024-02-26T02:09:51;97511.47;;;6.74;100.00
24858;BME280;12935;50.782;6.074;2024-02-26T02:12:16;97503.66;;;6.76;100.00
24858;BME280;12935;50.782;6.074;2024-02-26T02:14:42;97508.66;;;6.78;100.00
24858;BME280;12935;50.782;6.074;2024-02-26T02:17:08;97493.13;;;6.78;100.00
24858;BME280;12935;50.782;6.074;2024-02-26T02:19:33;97495.84;;;6.78;100.00
24858;BME280;12935;50.782;6.074;2024-02-26T02:21:58;97498.72;;;6.71;100.00
24858;BME280;12935;50.782;6.074;2024-02-26T02:24:24;97493.28;;;6.71;100.00
24858;BME280;12935;50.782;6.074;2024-02-26T02:26:49;97503.31;;;6.74;100.00
24858;BME280;12935;50.782;6.074;2024-02-26T02:29:15;97512.63;;;6.73;100.00
24858;BME280;12935;50.782;6.074;2024-02-26T02:31:40;97511.47;;;6.74;100.00
24858;BME280;12935;50.782;6.074;2024-02-26T02:34:07;97514.16;;;6.74;100.00
24858;BME280;12935;50.782;6.074;2024-02-26T02:36:32;97509.16;;;6.73;100.00
24858;BME280;12935;50.782;6.074;2024-02-26T02:38:58;97512.63;;;6.73;100.00
24858;BME280;12935;50.782;6.074;2024-02-26T02:41:23;97510.41;;;6.68;100.00
24858;BME280;12935;50.782;6.074;2024-02-26T02:43:48;97515.81;;;6.68;100.00
24858;BME280;12935;50.782;6.074;2024-02-26T02:46:14;97509.22;;;6.69;100.00
24858;BME280;12935;50.782;6.074;2024-02-26T02:48:41;97504.97;;;6.68;100.00
24858;BME280;12935;50.782;6.074;2024-02-26T02:51:06;97506.84;;;6.71;100.00
24858;BME280;12935;50.782;6.074;2024-02-26T02:53:32;97502.97;;;6.72;100.00
24858;BME280;12935;50.782;6.074;2024-02-26T02:55:57;97502.59;;;6.70;100.00
24858;BME280;12935;50.782;6.074;2024-02-26T02:58:22;97498.78;;;6.67;100.00
24858;BME280;12935;50.782;6.074;2024-02-26T03:00:47;97498.66;;;6.75;100.00
24858;BME280;12935;50.782;6.074;2024-02-26T03:03:13;97501.44;;;6.71;100.00
24858;BME280;12935;50.782;6.074;2024-02-26T03:05:38;97503.38;;;6.71;100.00
24858;BME280;12935;50.782;6.074;2024-02-26T03:08:03;97501.78;;;6.73;100.00
24858;BME280;12935;50.782;6.074;2024-02-26T03:10:29;97499.44;;;6.75;100.00
24858;BME280;12935;50.782;6.074;2024-02-26T03:12:54;97494.47;;;6.70;100.00
24858;BME280;12935;50.782;6.074;2024-02-26T03:15:19;97497.53;;;6.72;100.00
24858;BME280;12935;50.782;6.074;2024-02-26T03:17:45;97501.78;;;6.73;100.00
24858;BME280;12935;50.782;6.074;2024-02-26T03:20:10;97497.53;;;6.72;100.00
24858;BME280;12935;50.782;6.074;2024-02-26T03:22:38;97500.50;;;6.58;100.00
24858;BME280;12935;50.782;6.074;2024-02-26T03:25:04;97496.22;;;6.60;100.00
24858;BME280;12935;50.782;6.074;2024-02-26T03:27:29;97498.16;;;6.60;100.00
24858;BME280;12935;50.782;6.074;2024-02-26T03:29:54;97482.75;;;6.53;100.00
24858;BME280;12935;50.782;6.074;2024-02-26T03:32:20;97495.50;;;6.56;100.00
24858;BME280;12935;50.782;6.074;2024-02-26T03:34:45;97501.28;;;6.58;100.00
24858;BME280;12935;50.782;6.074;2024-02-26T03:37:10;97497.38;;;6.59;100.00
24858;BME280;12935;50.782;6.074;2024-02-26T03:39:36;97494.16;;;6.45;100.00
24858;BME280;12935;50.782;6.074;2024-02-26T03:42:01;97515.31;;;6.53;100.00
24858;BME280;12935;50.782;6.074;2024-02-26T03:44:27;97501.88;;;6.46;100.00
24858;BME280;12935;50.782;6.074;2024-02-26T03:46:52;97517.22;;;6.56;100.00
24858;BME280;12935;50.782;6.074;2024-02-26T03:49:17;97519.16;;;6.56;100.00
24858;BME280;12935;50.782;6.074;2024-02-26T03:51:43;97514.03;;;6.38;100.00
24858;BME280;12935;50.782;6.074;2024-02-26T03:54:08;97521.28;;;6.45;100.00
24858;BME280;12935;50.782;6.074;2024-02-26T03:56:33;97521.22;;;6.48;100.00
24858;BME280;12935;50.782;6.074;2024-02-26T03:58:58;97517.69;;;6.51;100.00
24858;BME280;12935;50.782;6.074;2024-02-26T04:01:26;97519.91;;;6.56;100.00
24858;BME280;12935;50.782;6.074;2024-02-26T04:03:52;97515.97;;;6.61;100.00
24858;BME280;12935;50.782;6.074;2024-02-26T04:06:18;97518.25;;;6.62;100.00
24858;BME280;12935;50.782;6.074;2024-02-26T04:08:44;97507.75;;;6.64;100.00
24858;BME280;12935;50.782;6.074;2024-02-26T04:11:10;97504.25;;;6.64;100.00
24858;BME280;12935;50.782;6.074;2024-02-26T04:13:35;97499.41;;;6.55;100.00
24858;BME280;12935;50.782;6.074;2024-02-26T04:16:03;97507.34;;;6.66;100.00
24858;BME280;12935;50.782;6.074;2024-02-26T04:18:29;97507.69;;;6.68;100.00
24858;BME280;12935;50.782;6.074;2024-02-26T04:20:54;97507.28;;;6.69;100.00
24858;BME280;12935;50.782;6.074;2024-02-26T04:23:19;97509.41;;;6.58;100.00
24858;BME280;12935;50.782;6.074;2024-02-26T04:25:45;97516.66;;;6.65;100.00
24858;BME280;12935;50.782;6.074;2024-02-26T04:28:10;97510.81;;;6.66;100.00
24858;BME280;12935;50.782;6.074;2024-02-26T04:30:36;97511.16;;;6.68;100.00
24858;BME280;12935;50.782;6.074;2024-02-26T04:33:01;97515.00;;;6.71;100.00
24858;BME280;12935;50.782;6.074;2024-02-26T04:35:27;97498.38;;;6.69;100.00
24858;BME280;12935;50.782;6.074;2024-02-26T04:37:52;97510.75;;;6.70;100.00
24858;BME280;12935;50.782;6.074;2024-02-26T04:40:18;97513.88;;;6.68;100.00
24858;BME280;12935;50.782;6.074;2024-02-26T04:42:43;97507.34;;;6.66;100.00
24858;BME280;12935;50.782;6.074;2024-02-26T04:45:08;97513.88;;;6.68;100.00
24858;BME280;12935;50.782;6.074;2024-02-26T04:47:34;97513.53;;;6.66;100.00
24858;BME280;12935;50.782;6.074;2024-02-26T04:49:59;97515.06;;;6.67;100.00
24858;BME280;12935;50.782;6.074;2024-02-26T04:52:25;97511.56;;;6.67;100.00
24858;BME280;12935;50.782;6.074;2024-02-26T04:54:50;97512.28;;;6.71;100.00
24858;BME280;12935;50.782;6.074;2024-02-26T04:57:16;97508.03;;;6.70;100.00
24858;BME280;12935;50.782;6.074;2024-02-26T04:59:43;97513.13;;;6.68;100.00
24858;BME280;12935;50.782;6.074;2024-02-26T05:02:09;97518.19;;;6.66;100.00
24858;BME280;12935;50.782;6.074;2024-02-26T05:04:34;97509.69;;;6.64;100.00
24858;BME280;12935;50.782;6.074;2024-02-26T05:07:00;97514.50;;;6.56;100.00
24858;BME280;12935;50.782;6.074;2024-02-26T05:09:25;97516.03;;;6.57;100.00
24858;BME280;12935;50.782;6.074;2024-02-26T05:11:50;97515.78;;;6.48;100.00
24858;BME280;12935;50.782;6.074;2024-02-26T05:14:15;97518.59;;;6.45;100.00
24858;BME280;12935;50.782;6.074;2024-02-26T05:16:41;97517.81;;;6.44;100.00
24858;BME280;12935;50.782;6.074;2024-02-26T05:19:06;97519.34;;;6.45;100.00
24858;BME280;12935;50.782;6.074;2024-02-26T05:21:31;97517.31;;;6.49;100.00
24858;BME280;12935;50.782;6.074;2024-02-26T05:23:56;97529.66;;;6.54;100.00
24858;BME280;12935;50.782;6.074;2024-02-26T05:26:22;97525.81;;;6.51;100.00
24858;BME280;12935;50.782;6.074;2024-02-26T05:28:48;97532.19;;;6.41;100.00
24858;BME280;12935;50.782;6.074;2024-02-26T05:31:14;97517.44;;;6.19;100.00
24858;BME280;12935;50.782;6.074;2024-02-26T05:33:39;97524.13;;;6.38;100.00
24858;BME280;12935;50.782;6.074;2024-02-26T05:36:05;97526.72;;;6.45;100.00
24858;BME280;12935;50.782;6.074;2024-02-26T05:38:30;97532.19;;;6.41;100.00
24858;BME280;12935;50.782;6.074;2024-02-26T05:40:57;97529.06;;;6.43;100.00
24858;BME280;12935;50.782;6.074;2024-02-26T05:43:23;97535.63;;;6.45;100.00
24858;BME280;12935;50.782;6.074;2024-02-26T05:45:49;97538.97;;;6.53;100.00
24858;BME280;12935;50.782;6.074;2024-02-26T05:48:14;97544.38;;;6.53;100.00
24858;BME280;12935;50.782;6.074;2024-02-26T05:50:39;97547.41;;;6.58;100.00
24858;BME280;12935;50.782;6.074;2024-02-26T05:53:04;97554.38;;;6.59;100.00
24858;BME280;12935;50.782;6.074;2024-02-26T05:55:30;97562.50;;;6.59;100.00
24858;BME280;12935;50.782;6.074;2024-02-26T05:57:55;97563.28;;;6.60;100.00
24858;BME280;12935;50.782;6.074;2024-02-26T06:00:20;97561.53;;;6.46;100.00
24858;BME280;12935;50.782;6.074;2024-02-26T06:02:46;97574.00;;;6.44;100.00
24858;BME280;12935;50.782;6.074;2024-02-26T06:05:11;97568.59;;;6.44;100.00
24858;BME280;12935;50.782;6.074;2024-02-26T06:07:36;97569.75;;;6.43;100.00
24858;BME280;12935;50.782;6.074;2024-02-26T06:10:02;97573.53;;;6.49;100.00
24858;BME280;12935;50.782;6.074;2024-02-26T06:12:29;97571.47;;;6.56;100.00
24858;BME280;12935;50.782;6.074;2024-02-26T06:14:55;97584.31;;;6.52;100.00
24858;BME280;12935;50.782;6.074;2024-02-26T06:17:21;97577.34;;;6.51;100.00
24858;BME280;12935;50.782;6.074;2024-02-26T06:19:46;97590.09;;;6.54;100.00
24858;BME280;12935;50.782;6.074;2024-02-26T06:22:11;97583.50;;;6.55;100.00
24858;BME280;12935;50.782;6.074;2024-02-26T06:24:37;97594.34;;;6.55;100.00
24858;BME280;12935;50.782;6.074;2024-02-26T06:27:03;97596.25;;;6.58;100.00
24858;BME280;12935;50.782;6.074;2024-02-26T06:29:28;97598.59;;;6.56;100.00
24858;BME280;12935;50.782;6.074;2024-02-26T06:31:53;97603.19;;;6.59;100.00
24858;BME280;12935;50.782;6.074;2024-02-26T06:34:18;97609.91;;;6.51;100.00
24858;BME280;12935;50.782;6.074;2024-02-26T06:36:44;97607.91;;;6.55;100.00
24858;BME280;12935;50.782;6.074;2024-02-26T06:39:09;97620.75;;;6.51;100.00
24858;BME280;12935;50.782;6.074;2024-02-26T06:41:35;97623.13;;;6.49;100.00
24858;BME280;12935;50.782;6.074;2024-02-26T06:44:01;97620.34;;;6.53;100.00
24858;BME280;12935;50.782;6.074;2024-02-26T06:46:27;97624.97;;;6.56;100.00
24858;BME280;12935;50.782;6.074;2024-02-26T06:48:55;97615.78;;;6.46;100.00
24858;BME280;12935;50.782;6.074;2024-02-26T06:51:21;97626.91;;;6.55;100.00
24858;BME280;12935;50.782;6.074;2024-02-26T06:53:46;97631.88;;;6.60;100.00
24858;BME280;12935;50.782;6.074;2024-02-26T06:56:11;97630.19;;;6.66;100.00
24858;BME280;12935;50.782;6.074;2024-02-26T06:58:36;97636.00;;;6.68;100.00
24858;BME280;12935;50.782;6.074;2024-02-26T07:01:02;97628.63;;;6.69;100.00
24858;BME280;12935;50.782;6.074;2024-02-26T07:03:27;97635.56;;;6.70;100.00
24858;BME280;12935;50.782;6.074;2024-02-26T07:05:52;97645.63;;;6.73;100.00
24858;BME280;12935;50.782;6.074;2024-02-26T07:08:18;97651.56;;;6.64;100.00
24858;BME280;12935;50.782;6.074;2024-02-26T07:10:44;97641.69;;;6.51;100.00
24858;BME280;12935;50.782;6.074;2024-02-26T07:13:09;97653.84;;;6.66;100.00
24858;BME280;12935;50.782;6.074;2024-02-26T07:15:34;97647.63;;;6.69;100.00
24858;BME280;12935;50.782;6.074;2024-02-26T07:18:00;97658.06;;;6.71;100.00
24858;BME280;12935;50.782;6.074;2024-02-26T07:20:29;97659.53;;;6.75;100.00
24858;BME280;12935;50.782;6.074;2024-02-26T07:22:54;97667.38;;;6.69;100.00
24858;BME280;12935;50.782;6.074;2024-02-26T07:25:20;97666.16;;;6.74;100.00
24858;BME280;12935;50.782;6.074;2024-02-26T07:27:46;97668.50;;;6.72;100.00
24858;BME280;12935;50.782;6.074;2024-02-26T07:30:11;97674.22;;;6.78;100.00
24858;BME280;12935;50.782;6.074;2024-02-26T07:32:37;97684.66;;;6.79;100.00
24858;BME280;12935;50.782;6.074;2024-02-26T07:35:02;97694.75;;;6.79;100.00
24858;BME280;12935;50.782;6.074;2024-02-26T07:37:28;97676.69;;;6.68;100.00
24858;BME280;12935;50.782;6.074;2024-02-26T07:39:53;97691.63;;;6.80;100.00
24858;BME280;12935;50.782;6.074;2024-02-26T07:42:19;97688.53;;;6.78;100.00
24858;BME280;12935;50.782;6.074;2024-02-26T07:44:44;97695.47;;;6.83;100.00
24858;BME280;12935;50.782;6.074;2024-02-26T07:47:10;97707.22;;;6.76;100.00
24858;BME280;12935;50.782;6.074;2024-02-26T07:49:35;97697.13;;;6.77;100.00
24858;BME280;12935;50.782;6.074;2024-02-26T07:52:00;97699.34;;;6.82;100.00
24858;BME280;12935;50.782;6.074;2024-02-26T07:54:25;97697.34;;;6.86;100.00
24858;BME280;12935;50.782;6.074;2024-02-26T07:56:51;97716.47;;;6.79;100.00
24858;BME280;12935;50.782;6.074;2024-02-26T07:59:16;97715.03;;;6.71;100.00
24858;BME280;12935;50.782;6.074;2024-02-26T08:01:41;97721.47;;;6.57;100.00
24858;BME280;12935;50.782;6.074;2024-02-26T08:04:07;97713.97;;;6.64;100.00
24858;BME280;12935;50.782;6.074;2024-02-26T08:06:32;97718.25;;;6.62;100.00
24858;BME280;12935;50.782;6.074;2024-02-26T08:08:57;97720.13;;;6.68;100.00
24858;BME280;12935;50.782;6.074;2024-02-26T08:11:23;97723.50;;;6.76;100.00
24858;BME280;12935;50.782;6.074;2024-02-26T08:13:48;97720.59;;;6.87;100.00
24858;BME280;12935;50.782;6.074;2024-02-26T08:16:13;97726.34;;;6.92;100.00
24858;BME280;12935;50.782;6.074;2024-02-26T08:18:38;97736.72;;;6.97;100.00
24858;BME280;12935;50.782;6.074;2024-02-26T08:21:04;97732.00;;;7.01;100.00
24858;BME280;12935;50.782;6.074;2024-02-26T08:23:29;97729.34;;;6.98;100.00
24858;BME280;12935;50.782;6.074;2024-02-26T08:25:56;97744.78;;;7.04;100.00
24858;BME280;12935;50.782;6.074;2024-02-26T08:28:21;97746.00;;;7.00;100.00
24858;BME280;12935;50.782;6.074;2024-02-26T08:30:46;97751.41;;;7.00;100.00
24858;BME280;12935;50.782;6.074;2024-02-26T08:33:11;97746.81;;;6.97;100.00
24858;BME280;12935;50.782;6.074;2024-02-26T08:35:38;97754.16;;;6.73;100.00
24858;BME280;12935;50.782;6.074;2024-02-26T08:38:04;97756.75;;;6.80;100.00
24858;BME280;12935;50.782;6.074;2024-02-26T08:40:29;97749.25;;;6.91;100.00
24858;BME280;12935;50.782;6.074;2024-02-26T08:42:54;97759.97;;;6.98;100.00
24858;BME280;12935;50.782;6.074;2024-02-26T08:45:20;97754.97;;;6.97;100.00
24858;BME280;12935;50.782;6.074;2024-02-26T08:47:46;97757.97;;;7.02;100.00
24858;BME280;12935;50.782;6.074;2024-02-26T08:50:11;97760.69;;;7.02;100.00
24858;BME280;12935;50.782;6.074;2024-02-26T08:52:37;97767.63;;;7.07;100.00
24858;BME280;12935;50.782;6.074;2024-02-26T08:55:03;97772.75;;;7.01;100.00
24858;BME280;12935;50.782;6.074;2024-02-26T08:57:29;97775.00;;;7.07;100.00
24858;BME280;12935;50.782;6.074;2024-02-26T08:59:56;97776.03;;;7.13;100.00
24858;BME280;12935;50.782;6.074;2024-02-26T09:02:22;97774.91;;;7.10;100.00
24858;BME280;12935;50.782;6.074;2024-02-26T09:04:47;97783.28;;;7.23;100.00
24858;BME280;12935;50.782;6.074;2024-02-26T09:07:12;97788.56;;;7.30;100.00
24858;BME280;12935;50.782;6.074;2024-02-26T09:09:38;97801.50;;;7.22;100.00
24858;BME280;12935;50.782;6.074;2024-02-26T09:12:03;97789.94;;;7.18;100.00
24858;BME280;12935;50.782;6.074;2024-02-26T09:14:29;97797.25;;;7.21;100.00
24858;BME280;12935;50.782;6.074;2024-02-26T09:16:54;97799.53;;;6.99;100.00
24858;BME280;12935;50.782;6.074;2024-02-26T09:19:19;97812.53;;;7.12;100.00
24858;BME280;12935;50.782;6.074;2024-02-26T09:21:45;97810.53;;;7.16;100.00
24858;BME280;12935;50.782;6.074;2024-02-26T09:24:11;97816.72;;;7.16;100.00
24858;BME280;12935;50.782;6.074;2024-02-26T09:26:37;97815.19;;;7.15;100.00
24858;BME280;12935;50.782;6.074;2024-02-26T09:29:02;97821.41;;;7.16;100.00
24858;BME280;12935;50.782;6.074;2024-02-26T09:31:29;97809.97;;;7.01;100.00
24858;BME280;12935;50.782;6.074;2024-02-26T09:33:54;97819.91;;;7.11;100.00
24858;BME280;12935;50.782;6.074;2024-02-26T09:36:19;97834.31;;;7.08;100.00
24858;BME280;12935;50.782;6.074;2024-02-26T09:38:45;97832.78;;;7.07;100.00
24858;BME280;12935;50.782;6.074;2024-02-26T09:41:14;97834.31;;;7.08;100.00
24858;BME280;12935;50.782;6.074;2024-02-26T09:43:44;97836.59;;;7.10;100.00
24858;BME280;12935;50.782;6.074;2024-02-26T09:46:13;97842.41;;;7.12;100.00
24858;BME280;12935;50.782;6.074;2024-02-26T09:48:42;97838.91;;;7.11;100.00
24858;BME280;12935;50.782;6.074;2024-02-26T09:51:10;97843.94;;;7.13;100.00
24858;BME280;12935;50.782;6.074;2024-02-26T09:53:36;97833.19;;;7.06;100.00
24858;BME280;12935;50.782;6.074;2024-02-26T09:56:06;97854.34;;;7.18;100.00
24858;BME280;12935;50.782;6.074;2024-02-26T09:58:32;97849.31;;;7.16;100.00
24858;BME280;12935;50.782;6.074;2024-02-26T10:00:57;97855.53;;;7.17;100.00
24858;BME280;12935;50.782;6.074;2024-02-26T10:03:29;97853.13;;;7.22;100.00
24858;BME280;12935;50.782;6.074;2024-02-26T10:05:55;97861.19;;;7.26;100.00
24858;BME280;12935;50.782;6.074;2024-02-26T10:08:22;97846.06;;;7.25;100.00
24858;BME280;12935;50.782;6.074;2024-02-26T10:10:49;97869.97;;;7.37;100.00
24858;BME280;12935;50.782;6.074;2024-02-26T10:13:14;97867.94;;;7.41;100.00
24858;BME280;12935;50.782;6.074;2024-02-26T10:15:40;97878.00;;;7.44;100.00
24858;BME280;12935;50.782;6.074;2024-02-26T10:18:06;97874.47;;;7.47;100.00
24858;BME280;12935;50.782;6.074;2024-02-26T10:20:31;97882.97;;;7.49;100.00
24858;BME280;12935;50.782;6.074;2024-02-26T10:22:57;97879.03;;;7.54;100.00
24858;BME280;12935;50.782;6.074;2024-02-26T10:25:22;97883.56;;;7.60;100.00
24858;BME280;12935;50.782;6.074;2024-02-26T10:27:48;97886.59;;;7.66;100.00
24858;BME280;12935;50.782;6.074;2024-02-26T10:30:17;97893.06;;;7.72;100.00
24858;BME280;12935;50.782;6.074;2024-02-26T10:32:44;97884.88;;;7.75;100.00
24858;BME280;12935;50.782;6.074;2024-02-26T10:35:10;97893.69;;;7.83;100.00
24858;BME280;12935;50.782;6.074;2024-02-26T10:37:35;97893.75;;;7.80;100.00
24858;BME280;12935;50.782;6.074;2024-02-26T10:40:01;97900.16;;;7.89;100.00
24858;BME280;12935;50.782;6.074;2024-02-26T10:42:27;97897.28;;;8.00;100.00
24858;BME280;12935;50.782;6.074;2024-02-26T10:44:52;97900.59;;;7.88;100.00
24858;BME280;12935;50.782;6.074;2024-02-26T10:47:17;97915.59;;;7.72;100.00
24858;BME280;12935;50.782;6.074;2024-02-26T10:49:46;97909.19;;;7.86;100.00
24858;BME280;12935;50.782;6.074;2024-02-26T10:52:15;97904.69;;;7.99;100.00
24858;BME280;12935;50.782;6.074;2024-02-26T10:54:41;97919.25;;;8.09;100.00
24858;BME280;12935;50.782;6.074;2024-02-26T10:57:09;97921.88;;;8.16;100.00
24858;BME280;12935;50.782;6.074;2024-02-26T10:59:36;97906.97;;;8.01;100.00
24858;BME280;12935;50.782;6.074;2024-02-26T11:02:03;97923.34;;;7.97;100.00
24858;BME280;12935;50.782;6.074;2024-02-26T11:04:29;97915.63;;;7.96;100.00
24858;BME280;12935;50.782;6.074;2024-02-26T11:06:57;97925.78;;;8.15;100.00
24858;BME280;12935;50.782;6.074;2024-02-26T11:09:22;97924.09;;;8.21;100.00
24858;BME280;12935;50.782;6.074;2024-02-26T11:11:49;97943.78;;;8.32;100.00
24858;BME280;12935;50.782;6.074;2024-02-26T11:14:15;97928.22;;;8.33;100.00
24858;BME280;12935;50.782;6.074;2024-02-26T11:16:42;97943.91;;;8.45;100.00
24858;BME280;12935;50.782;6.074;2024-02-26T11:19:09;97938.91;;;8.43;100.00
24858;BME280;12935;50.782;6.074;2024-02-26T11:21:36;97937.78;;;8.41;100.00
24858;BME280;12935;50.782;6.074;2024-02-26T11:24:07;97946.50;;;8.52;100.00
24858;BME280;12935;50.782;6.074;2024-02-26T11:26:36;97952.34;;;8.51;100.00
24858;BME280;12935;50.782;6.074;2024-02-26T11:29:04;97949.72;;;8.47;100.00
24858;BME280;12935;50.782;6.074;2024-02-26T11:31:32;97956.97;;;8.54;100.00
24858;BME280;12935;50.782;6.074;2024-02-26T11:33:58;97963.19;;;8.54;100.00
24858;BME280;12935;50.782;6.074;2024-02-26T11:36:24;97959.06;;;8.46;100.00
24858;BME280;12935;50.782;6.074;2024-02-26T11:38:49;97961.06;;;8.42;100.00
24858;BME280;12935;50.782;6.074;2024-02-26T11:41:17;97958.16;;;8.33;100.00
24858;BME280;12935;50.782;6.074;2024-02-26T11:44:08;97980.75;;;8.26;100.00
24858;BME280;12935;50.782;6.074;2024-02-26T11:51:55;97972.06;;;7.88;100.00
24858;BME280;12935;50.782;6.074;2024-02-26T11:57:24;97985.81;;;7.78;100.00
24858;BME280;12935;50.782;6.074;2024-02-26T11:59:54;97988.53;;;7.78;100.00
24858;BME280;12935;50.782;6.074;2024-02-26T12:05:18;97985.94;;;7.70;100.00
24858;BME280;12935;50.782;6.074;2024-02-26T12:07:48;97991.72;;;7.72;100.00
24858;BME280;12935;50.782;6.074;2024-02-26T12:10:36;97995.78;;;7.61;100.00
24858;BME280;12935;50.782;6.074;2024-02-26T12:13:13;98003.91;;;7.61;100.00
24858;BME280;12935;50.782;6.074;2024-02-26T12:15:41;97995.78;;;7.61;100.00
24858;BME280;12935;50.782;6.074;2024-02-26T12:18:10;98005.47;;;7.62;100.00
24858;BME280;12935;50.782;6.074;2024-02-26T12:24:14;98002.34;;;7.63;100.00
24858;BME280;12935;50.782;6.074;2024-02-26T12:26:41;98007.81;;;7.60;100.00
24858;BME280;12935;50.782;6.074;2024-02-26T12:29:07;98014.75;;;7.64;100.00
24858;BME280;12935;50.782;6.074;2024-02-26T12:31:33;98018.28;;;7.61;100.00
24858;BME280;12935;50.782;6.074;2024-02-26T12:34:00;98020.59;;;7.63;100.00
24858;BME280;12935;50.782;6.074;2024-02-26T12:36:25;98036.09;;;7.66;100.00
24858;BME280;12935;50.782;6.074;2024-02-26T12:38:51;98033.81;;;7.61;100.00
24858;BME280;12935;50.782;6.074;2024-02-26T12:41:16;98043.50;;;7.62;100.00
24858;BME280;12935;50.782;6.074;2024-02-26T12:43:42;98054.50;;;7.55;100.00
24858;BME280;12935;50.782;6.074;2024-02-26T12:46:07;98058.00;;;7.55;100.00
24858;BME280;12935;50.782;6.074;2024-02-26T12:48:33;98054.91;;;7.53;100.00
24858;BME280;12935;50.782;6.074;2024-02-26T12:50:59;98067.72;;;7.53;100.00
24858;BME280;12935;50.782;6.074;2024-02-26T12:53:24;98062.28;;;7.53;100.00
24858;BME280;12935;50.782;6.074;2024-02-26T12:55:50;98066.94;;;7.52;100.00
24858;BME280;12935;50.782;6.074;2024-02-26T12:58:16;98068.13;;;7.51;100.00
24858;BME280;12935;50.782;6.074;2024-02-26T13:00:42;98067.34;;;7.51;100.00
24858;BME280;12935;50.782;6.074;2024-02-26T13:03:08;98066.53;;;7.54;100.00
24858;BME280;12935;50.782;6.074;2024-02-26T13:05:34;98074.63;;;7.57;100.00
24858;BME280;12935;50.782;6.074;2024-02-26T13:07:59;98069.56;;;7.59;100.00